Time;durP1;ratioP1;P1;durP2;ratioP2;P2;SDS_P1;SDS_P2;PMS_P1;PMS_P2;Temp;Humidity;BMP_temperature;BMP_pressure;BME280_temperature;BME280_humidity;BME280_pressure;Samples;Min_cycle;Max_cycle;Signal;HPM_P1;HPM_P2
2023/12/20 00:01:02;;;;;;;16.65;2.60;;;;;;;;;;4952530;28;98952;-76
2023/12/20 00:03:29;;;;;;;23.33;2.85;;;;;;;;;;4967140;28;99871;-77
2023/12/20 00:06:07;;;;;;;18.70;3.00;;;;;;;;;;4974172;28;100661;-75
2023/12/20 00:08:34;;;;;;;20.85;2.95;;;;;;;;;;4966912;28;99075;-76
2023/12/20 00:11:00;;;;;;;16.80;3.05;;;;;;;;;;4967265;28;99429;-75
2023/12/20 00:13:26;;;;;;;9.80;2.05;;;;;;;;;;4979125;28;98952;-75
2023/12/20 00:15:53;;;;;;;12.80;3.67;;;;;;;;;;4978254;28;99392;-76
2023/12/20 00:18:19;;;;;;;5.60;2.40;;;;;;;;;;4983578;28;99282;-75
2023/12/20 00:20:46;;;;;;;7.20;2.13;;;;;;;;;;4986073;28;98241;-75
2023/12/20 00:23:12;;;;;;;12.05;3.13;;;;;;;;;;4979967;28;99484;-75
2023/12/20 00:25:39;;;;;;;8.45;2.00;;;;;;;;;;4952720;28;100693;-75
2023/12/20 00:28:05;;;;;;;14.70;3.13;;;;;;;;;;4976327;28;98258;-76
2023/12/20 00:30:32;;;;;;;9.52;2.90;;;;;;;;;;4983942;28;99492;-76
2023/12/20 00:32:59;;;;;;;15.55;3.33;;;;;;;;;;4973968;28;100066;-74
2023/12/20 00:35:25;;;;;;;11.98;2.70;;;;;;;;;;4972349;28;98627;-76
2023/12/20 00:37:52;;;;;;;5.95;1.70;;;;;;;;;;4982587;28;99945;-75
2023/12/20 00:40:18;;;;;;;5.85;2.15;;;;;;;;;;4967360;28;98246;-76
2023/12/20 00:42:46;;;;;;;12.65;2.78;;;;;;;;;;4967829;28;98677;-75
2023/12/20 00:45:14;;;;;;;17.08;2.33;;;;;;;;;;4969429;28;100247;-75
2023/12/20 00:47:40;;;;;;;7.63;2.50;;;;;;;;;;4970941;28;98259;-76
2023/12/20 00:50:08;;;;;;;7.38;2.13;;;;;;;;;;4970083;28;99503;-76
2023/12/20 00:52:36;;;;;;;10.75;2.10;;;;;;;;;;4976983;28;99894;-76
2023/12/20 00:55:03;;;;;;;16.50;3.10;;;;;;;;;;4990525;28;98253;-76
2023/12/20 00:57:31;;;;;;;18.77;2.88;;;;;;;;;;4973081;28;99573;-75
2023/12/20 00:59:57;;;;;;;14.10;2.80;;;;;;;;;;4972673;28;98442;-76
2023/12/20 01:02:24;;;;;;;16.25;2.10;;;;;;;;;;4970325;28;99697;-76
2023/12/20 01:04:50;;;;;;;12.95;2.25;;;;;;;;;;4970433;28;99921;-75
2023/12/20 01:07:17;;;;;;;14.45;2.30;;;;;;;;;;4969440;28;98782;-75
2023/12/20 01:09:44;;;;;;;20.05;3.67;;;;;;;;;;4970872;28;99662;-76
2023/12/20 01:12:11;;;;;;;16.48;3.13;;;;;;;;;;4972111;28;99997;-76
2023/12/20 01:14:39;;;;;;;18.45;2.30;;;;;;;;;;4978041;28;98308;-75
2023/12/20 01:17:05;;;;;;;9.50;2.55;;;;;;;;;;4971655;28;98458;-76
2023/12/20 01:19:32;;;;;;;14.15;3.40;;;;;;;;;;4983867;28;100671;-75
2023/12/20 01:21:58;;;;;;;12.00;2.75;;;;;;;;;;4987187;28;98534;-76
2023/12/20 01:24:25;;;;;;;12.35;2.28;;;;;;;;;;4973860;28;99115;-75
2023/12/20 01:26:51;;;;;;;21.25;2.90;;;;;;;;;;4969219;28;98646;-76
2023/12/20 01:29:18;;;;;;;11.05;2.10;;;;;;;;;;4969112;28;99760;-76
2023/12/20 01:31:44;;;;;;;16.90;3.65;;;;;;;;;;4988318;28;99913;-75
2023/12/20 01:34:11;;;;;;;10.40;2.13;;;;;;;;;;4987531;28;98708;-75
2023/12/20 01:36:37;;;;;;;9.50;2.00;;;;;;;;;;4969644;28;99461;-75
2023/12/20 01:39:04;;;;;;;10.88;2.38;;;;;;;;;;4982522;28;100197;-76
2023/12/20 01:41:40;;;;;;;14.25;2.55;;;;;;;;;;4973840;28;98288;-75
2023/12/20 01:44:06;;;;;;;10.32;2.97;;;;;;;;;;4969862;28;99961;-76
2023/12/20 01:46:33;;;;;;;10.32;2.83;;;;;;;;;;4969537;28;98299;-74
2023/12/20 01:48:59;;;;;;;10.88;2.58;;;;;;;;;;4969325;28;99452;-75
2023/12/20 01:51:27;;;;;;;17.58;2.97;;;;;;;;;;4968939;28;100193;-75
2023/12/20 01:53:55;;;;;;;17.55;2.53;;;;;;;;;;4969723;28;98416;-74
2023/12/20 01:56:21;;;;;;;11.13;3.75;;;;;;;;;;4968864;28;98610;-75
2023/12/20 01:58:48;;;;;;;15.80;1.75;;;;;;;;;;4969284;28;99943;-76
2023/12/20 02:01:14;;;;;;;23.58;2.88;;;;;;;;;;4980203;28;98605;-76
2023/12/20 02:03:42;;;;;;;6.72;1.85;;;;;;;;;;4992341;28;99396;-74
2023/12/20 02:06:09;;;;;;;14.93;1.52;;;;;;;;;;4978841;28;98542;-75
2023/12/20 02:08:36;;;;;;;22.00;3.78;;;;;;;;;;4969554;28;99599;-75
2023/12/20 02:11:02;;;;;;;11.65;2.50;;;;;;;;;;4969082;28;100281;-75
2023/12/20 02:13:30;;;;;;;9.55;2.50;;;;;;;;;;4978987;28;98355;-75
2023/12/20 02:15:56;;;;;;;19.25;3.38;;;;;;;;;;4984404;28;99424;-74
2023/12/20 02:18:23;;;;;;;21.98;2.90;;;;;;;;;;4967781;28;99993;-75
2023/12/20 02:20:50;;;;;;;24.20;3.42;;;;;;;;;;4975946;28;98394;-75
2023/12/20 02:23:16;;;;;;;14.60;2.58;;;;;;;;;;4981715;28;99755;-75
2023/12/20 02:25:42;;;;;;;20.95;5.15;;;;;;;;;;4970590;28;99950;-75
2023/12/20 02:28:09;;;;;;;18.85;3.35;;;;;;;;;;4968361;28;101457;-74
2023/12/20 02:30:36;;;;;;;21.95;3.72;;;;;;;;;;4985343;28;98916;-76
2023/12/20 02:33:03;;;;;;;20.95;3.53;;;;;;;;;;4982972;28;100051;-75
2023/12/20 02:35:30;;;;;;;39.83;3.30;;;;;;;;;;4967695;28;99423;-74
2023/12/20 02:37:56;;;;;;;13.40;3.00;;;;;;;;;;4983849;28;99945;-75
2023/12/20 02:40:22;;;;;;;22.70;2.92;;;;;;;;;;4975759;28;98575;-75
2023/12/20 02:42:49;;;;;;;7.13;2.72;;;;;;;;;;4967727;28;99395;-76
2023/12/20 02:45:16;;;;;;;20.17;3.72;;;;;;;;;;4967333;28;99973;-74
2023/12/20 02:47:42;;;;;;;20.55;3.17;;;;;;;;;;4972073;28;99182;-76
2023/12/20 02:50:09;;;;;;;15.18;3.03;;;;;;;;;;4966874;28;100096;-75
2023/12/20 02:52:35;;;;;;;14.98;4.25;;;;;;;;;;4983231;28;98043;-76
2023/12/20 02:55:02;;;;;;;25.95;4.70;;;;;;;;;;4988516;28;99493;-76
2023/12/20 02:57:28;;;;;;;18.50;3.50;;;;;;;;;;4987694;28;100590;-75
2023/12/20 02:59:55;;;;;;;16.13;3.50;;;;;;;;;;4987558;28;98229;-76
2023/12/20 03:02:21;;;;;;;15.02;2.88;;;;;;;;;;4968188;28;99056;-76
2023/12/20 03:04:48;;;;;;;12.27;3.40;;;;;;;;;;4967449;28;100181;-75
2023/12/20 03:07:14;;;;;;;22.27;3.50;;;;;;;;;;4971212;28;98591;-75
2023/12/20 03:09:41;;;;;;;12.63;3.50;;;;;;;;;;4968646;28;99996;-75
2023/12/20 03:12:27;;;;;;;14.13;3.97;;;;;;;;;;4967603;28;98923;-75
2023/12/20 03:14:54;;;;;;;14.25;3.63;;;;;;;;;;4970664;28;99770;-75
2023/12/20 03:17:20;;;;;;;15.27;3.03;;;;;;;;;;4967359;28;99959;-74
2023/12/20 03:19:47;;;;;;;7.65;2.08;;;;;;;;;;4966219;28;98297;-75
2023/12/20 03:22:13;;;;;;;21.65;3.95;;;;;;;;;;4981547;28;99571;-75
2023/12/20 03:24:40;;;;;;;20.83;3.20;;;;;;;;;;4986814;28;99936;-74
2023/12/20 03:27:06;;;;;;;12.55;3.30;;;;;;;;;;4965373;28;98243;-75
2023/12/20 03:29:33;;;;;;;10.93;2.78;;;;;;;;;;4983851;28;99928;-74
2023/12/20 03:31:59;;;;;;;25.60;4.35;;;;;;;;;;4987991;28;98373;-74
2023/12/20 03:34:26;;;;;;;15.57;2.78;;;;;;;;;;4985548;28;99682;-74
2023/12/20 03:36:53;;;;;;;17.55;4.38;;;;;;;;;;4974405;28;100038;-75
2023/12/20 03:39:19;;;;;;;20.15;4.13;;;;;;;;;;4985589;28;98721;-75
2023/12/20 03:41:45;;;;;;;26.85;2.47;;;;;;;;;;4986925;28;99415;-75
2023/12/20 03:44:12;;;;;;;23.83;4.15;;;;;;;;;;4976774;28;99219;-75
2023/12/20 03:46:38;;;;;;;28.77;4.20;;;;;;;;;;4987684;28;98461;-75
2023/12/20 03:49:05;;;;;;;11.82;3.08;;;;;;;;;;4985427;28;99892;-76
2023/12/20 03:51:31;;;;;;;12.68;3.10;;;;;;;;;;4985780;28;100250;-75
2023/12/20 03:53:57;;;;;;;20.30;3.92;;;;;;;;;;4965080;28;99336;-75
2023/12/20 03:56:24;;;;;;;20.55;4.20;;;;;;;;;;4967647;28;99899;-75
2023/12/20 03:58:50;;;;;;;18.65;3.20;;;;;;;;;;4971237;28;98309;-76
2023/12/20 04:01:17;;;;;;;14.40;3.63;;;;;;;;;;4965223;28;99578;-75
2023/12/20 04:03:43;;;;;;;19.80;2.58;;;;;;;;;;4981292;28;98949;-75
2023/12/20 04:06:10;;;;;;;20.02;3.72;;;;;;;;;;4966409;28;99906;-76
2023/12/20 04:08:36;;;;;;;16.23;3.35;;;;;;;;;;4985731;28;98845;-75
2023/12/20 04:11:03;;;;;;;10.57;2.08;;;;;;;;;;4986214;28;98690;-76
2023/12/20 04:13:29;;;;;;;16.75;3.28;;;;;;;;;;4988061;28;98696;-75
2023/12/20 04:15:56;;;;;;;16.75;3.65;;;;;;;;;;4974313;28;100182;-76
2023/12/20 04:18:22;;;;;;;19.55;3.70;;;;;;;;;;4984859;28;98438;-75
2023/12/20 04:20:49;;;;;;;13.77;2.92;;;;;;;;;;4986490;28;98961;-74
2023/12/20 04:23:16;;;;;;;23.73;4.07;;;;;;;;;;4984769;28;100176;-75
2023/12/20 04:25:42;;;;;;;13.25;3.22;;;;;;;;;;4987972;28;98376;-76
2023/12/20 04:28:10;;;;;;;18.90;3.50;;;;;;;;;;4980309;28;99880;-75
2023/12/20 04:30:36;;;;;;;12.40;3.10;;;;;;;;;;4980661;28;98982;-77
2023/12/20 04:33:03;;;;;;;22.17;3.63;;;;;;;;;;4974134;28;98309;-76
2023/12/20 04:35:29;;;;;;;13.30;3.40;;;;;;;;;;4984171;28;99773;-75
2023/12/20 04:37:57;;;;;;;14.00;2.92;;;;;;;;;;4973636;28;98393;-75
2023/12/20 04:40:24;;;;;;;15.00;2.80;;;;;;;;;;4986064;28;98696;-76
2023/12/20 04:42:50;;;;;;;12.07;3.03;;;;;;;;;;4979075;28;100518;-76
2023/12/20 04:45:18;;;;;;;16.00;3.25;;;;;;;;;;4984155;28;98336;-76
2023/12/20 04:47:46;;;;;;;17.70;3.47;;;;;;;;;;4976103;28;99055;-74
2023/12/20 04:50:14;;;;;;;17.67;4.13;;;;;;;;;;4971726;28;100092;-75
2023/12/20 04:52:41;;;;;;;17.33;2.97;;;;;;;;;;4952010;28;98140;-75
2023/12/20 04:55:08;;;;;;;16.98;4.35;;;;;;;;;;4979776;28;98692;-75
2023/12/20 04:57:35;;;;;;;14.45;4.65;;;;;;;;;;4969127;28;100210;-74
2023/12/20 05:00:01;;;;;;;11.98;2.88;;;;;;;;;;4967142;28;98479;-74
2023/12/20 05:02:28;;;;;;;12.50;2.70;;;;;;;;;;4966455;28;100563;-75
2023/12/20 05:04:54;;;;;;;15.90;3.22;;;;;;;;;;4966451;28;98580;-76
2023/12/20 05:07:21;;;;;;;12.15;3.63;;;;;;;;;;4967568;28;99791;-76
2023/12/20 05:09:48;;;;;;;27.95;4.10;;;;;;;;;;4966771;28;98901;-75
2023/12/20 05:12:15;;;;;;;18.85;3.83;;;;;;;;;;4965905;28;98293;-76
2023/12/20 05:14:41;;;;;;;35.03;3.83;;;;;;;;;;4967895;28;99536;-76
2023/12/20 05:17:07;;;;;;;16.10;3.60;;;;;;;;;;4968888;28;100167;-75
2023/12/20 05:19:35;;;;;;;16.23;3.70;;;;;;;;;;4966290;28;99430;-76
2023/12/20 05:22:02;;;;;;;13.35;2.78;;;;;;;;;;4966436;28;100008;-74
2023/12/20 05:24:30;;;;;;;19.75;2.97;;;;;;;;;;4974979;28;98347;-74
2023/12/20 05:26:57;;;;;;;27.98;3.83;;;;;;;;;;4968745;28;99504;-75
2023/12/20 05:29:26;;;;;;;15.35;6.22;;;;;;;;;;4982435;28;100713;-74
2023/12/20 05:31:53;;;;;;;17.20;2.67;;;;;;;;;;4988912;28;100198;-75
2023/12/20 05:34:20;;;;;;;16.95;4.80;;;;;;;;;;4983243;28;98982;-77
2023/12/20 05:36:47;;;;;;;17.27;4.53;;;;;;;;;;4975024;28;99207;-76
2023/12/20 05:39:13;;;;;;;17.20;3.30;;;;;;;;;;4992066;28;99162;-74
2023/12/20 05:41:40;;;;;;;20.10;3.08;;;;;;;;;;4987407;28;101875;-76
2023/12/20 05:44:06;;;;;;;13.55;3.55;;;;;;;;;;4979734;28;98792;-74
2023/12/20 05:46:33;;;;;;;21.40;3.38;;;;;;;;;;4986590;28;98645;-75
2023/12/20 05:49:00;;;;;;;17.70;3.15;;;;;;;;;;4988243;28;99860;-74
2023/12/20 05:51:27;;;;;;;18.75;3.83;;;;;;;;;;4976813;28;98417;-76
2023/12/20 05:53:55;;;;;;;25.25;3.83;;;;;;;;;;4968750;28;99343;-74
2023/12/20 05:56:22;;;;;;;10.20;3.53;;;;;;;;;;4968983;28;100306;-73
2023/12/20 05:58:48;;;;;;;12.63;2.35;;;;;;;;;;4983484;28;98255;-77
2023/12/20 06:01:16;;;;;;;22.70;3.67;;;;;;;;;;4964880;28;101477;-74
2023/12/20 06:03:43;;;;;;;11.43;2.35;;;;;;;;;;4949774;28;98243;-74
2023/12/20 06:06:10;;;;;;;13.20;3.03;;;;;;;;;;4966939;28;99491;-74
2023/12/20 06:08:43;;;;;;;13.27;2.58;;;;;;;;;;4970375;28;99961;-75
2023/12/20 06:11:10;;;;;;;10.85;3.78;;;;;;;;;;4970004;28;98804;-75
2023/12/20 06:13:38;;;;;;;23.45;4.88;;;;;;;;;;4968475;28;99463;-75
2023/12/20 06:16:07;;;;;;;27.13;4.20;;;;;;;;;;4967172;28;99949;-74
2023/12/20 06:18:34;;;;;;;12.57;2.72;;;;;;;;;;4968955;28;98998;-74
2023/12/20 06:21:02;;;;;;;9.98;2.63;;;;;;;;;;4984044;28;98388;-74
2023/12/20 06:23:28;;;;;;;18.92;4.43;;;;;;;;;;4957443;28;100278;-75
2023/12/20 06:25:55;;;;;;;28.42;3.25;;;;;;;;;;4976121;28;99727;-75
2023/12/20 06:28:21;;;;;;;12.23;3.40;;;;;;;;;;4968403;28;99342;-75
2023/12/20 06:30:49;;;;;;;22.92;3.92;;;;;;;;;;4967687;28;98838;-75
2023/12/20 06:33:16;;;;;;;16.48;3.60;;;;;;;;;;4981392;28;99424;-75
2023/12/20 06:35:42;;;;;;;13.10;3.25;;;;;;;;;;4974643;28;100050;-74
2023/12/20 06:38:09;;;;;;;14.57;3.20;;;;;;;;;;4967451;28;98614;-75
2023/12/20 06:40:35;;;;;;;10.65;2.80;;;;;;;;;;4968225;28;99775;-75
2023/12/20 06:43:02;;;;;;;24.23;3.25;;;;;;;;;;4967649;28;99973;-75
2023/12/20 06:45:41;;;;;;;13.00;2.70;;;;;;;;;;4972583;28;98279;-75
2023/12/20 06:48:08;;;;;;;14.63;2.88;;;;;;;;;;4969242;28;99086;-75
2023/12/20 06:50:34;;;;;;;22.77;4.03;;;;;;;;;;4982577;28;98521;-74
2023/12/20 06:53:06;;;;;;;12.60;3.47;;;;;;;;;;4988571;28;99575;-74
2023/12/20 06:55:34;;;;;;;10.88;2.90;;;;;;;;;;4978670;28;100058;-74
2023/12/20 06:58:02;;;;;;;17.83;3.85;;;;;;;;;;4967765;28;98686;-76
2023/12/20 07:00:28;;;;;;;16.95;3.20;;;;;;;;;;4967884;28;98590;-75
2023/12/20 07:02:56;;;;;;;21.88;3.38;;;;;;;;;;4975898;28;99183;-75
2023/12/20 07:05:23;;;;;;;23.05;3.72;;;;;;;;;;4970693;28;99364;-74
2023/12/20 07:07:49;;;;;;;21.50;3.25;;;;;;;;;;4991369;28;99522;-75
2023/12/20 07:10:16;;;;;;;10.95;3.13;;;;;;;;;;4987861;28;98733;-75
2023/12/20 07:12:43;;;;;;;21.00;3.67;;;;;;;;;;4977667;28;98434;-74
2023/12/20 07:15:10;;;;;;;16.83;3.67;;;;;;;;;;4967360;28;99839;-74
2023/12/20 07:17:37;;;;;;;15.27;3.33;;;;;;;;;;4967147;28;98169;-74
2023/12/20 07:20:04;;;;;;;21.40;3.67;;;;;;;;;;4983680;28;99396;-75
2023/12/20 07:22:33;;;;;;;13.57;2.75;;;;;;;;;;4987889;28;100278;-74
2023/12/20 07:25:00;;;;;;;25.63;3.90;;;;;;;;;;4987142;28;98334;-75
2023/12/20 07:27:27;;;;;;;11.45;2.67;;;;;;;;;;4990773;28;98540;-74
2023/12/20 07:29:53;;;;;;;16.60;2.88;;;;;;;;;;4988022;28;98190;-75
2023/12/20 07:32:20;;;;;;;6.68;2.72;;;;;;;;;;4985688;28;99451;-74
2023/12/20 07:34:46;;;;;;;16.52;3.50;;;;;;;;;;4975865;28;99995;-73
2023/12/20 07:37:13;;;;;;;14.95;3.00;;;;;;;;;;4987732;28;98217;-73
2023/12/20 07:39:40;;;;;;;13.90;3.03;;;;;;;;;;4986755;28;100539;-74
2023/12/20 07:42:07;;;;;;;13.80;4.20;;;;;;;;;;4987098;28;99994;-75
2023/12/20 07:44:35;;;;;;;17.75;3.63;;;;;;;;;;4987047;28;98272;-74
2023/12/20 07:47:02;;;;;;;21.40;3.97;;;;;;;;;;4984604;28;98556;-75
2023/12/20 07:49:29;;;;;;;8.98;2.30;;;;;;;;;;4982708;28;99041;-75
2023/12/20 07:51:56;;;;;;;9.95;3.10;;;;;;;;;;4984005;28;99496;-76
2023/12/20 07:54:22;;;;;;;15.40;4.75;;;;;;;;;;4986129;28;99098;-75
2023/12/20 07:56:49;;;;;;;19.35;3.88;;;;;;;;;;4976576;28;98978;-74
2023/12/20 07:59:16;;;;;;;13.98;3.05;;;;;;;;;;4967161;28;98651;-74
2023/12/20 08:01:55;;;;;;;14.57;3.00;;;;;;;;;;4973347;28;100078;-75
2023/12/20 08:04:22;;;;;;;14.27;3.10;;;;;;;;;;4959700;28;98722;-74
2023/12/20 08:06:49;;;;;;;16.35;3.30;;;;;;;;;;4962524;28;99880;-74
2023/12/20 08:09:16;;;;;;;14.07;3.05;;;;;;;;;;4964850;28;98832;-75
2023/12/20 08:11:48;;;;;;;29.70;4.82;;;;;;;;;;4971637;28;98162;-74
2023/12/20 08:14:15;;;;;;;19.27;2.22;;;;;;;;;;4965975;28;99919;-73
2023/12/20 08:16:44;;;;;;;9.85;3.13;;;;;;;;;;4966794;28;98505;-74
2023/12/20 08:19:10;;;;;;;15.43;4.22;;;;;;;;;;4966598;28;99622;-74
2023/12/20 08:21:37;;;;;;;14.02;2.45;;;;;;;;;;4964008;28;100243;-73
2023/12/20 08:24:04;;;;;;;20.92;4.75;;;;;;;;;;4955388;28;98480;-78
2023/12/20 08:26:31;;;;;;;14.40;3.33;;;;;;;;;;4957409;28;101261;-75
2023/12/20 08:28:57;;;;;;;20.45;3.75;;;;;;;;;;4975004;28;100135;-73
2023/12/20 08:31:27;;;;;;;13.95;2.88;;;;;;;;;;4971539;28;98387;-74
2023/12/20 08:33:53;;;;;;;12.60;2.75;;;;;;;;;;4969391;28;99365;-75
2023/12/20 08:36:22;;;;;;;22.48;4.25;;;;;;;;;;4966159;28;98282;-74
2023/12/20 08:38:49;;;;;;;12.88;2.72;;;;;;;;;;4967325;28;99844;-74
2023/12/20 08:41:16;;;;;;;15.80;4.75;;;;;;;;;;4966605;28;99970;-74
2023/12/20 08:43:43;;;;;;;13.68;2.92;;;;;;;;;;4966828;28;98369;-74
2023/12/20 08:46:09;;;;;;;19.70;4.32;;;;;;;;;;4967003;28;98673;-74
2023/12/20 08:48:37;;;;;;;12.77;2.60;;;;;;;;;;4966566;28;99033;-75
2023/12/20 08:51:04;;;;;;;29.63;4.22;;;;;;;;;;4965935;28;98264;-74
2023/12/20 08:53:30;;;;;;;12.15;3.42;;;;;;;;;;4966834;28;99780;-74
2023/12/20 08:56:01;;;;;;;19.90;3.33;;;;;;;;;;4969834;28;99917;-74
2023/12/20 08:58:27;;;;;;;19.92;3.80;;;;;;;;;;4965393;28;99208;-74
2023/12/20 09:00:54;;;;;;;22.60;3.53;;;;;;;;;;4966546;28;99045;-74
2023/12/20 09:03:21;;;;;;;19.58;3.55;;;;;;;;;;4966390;28;98156;-74
2023/12/20 09:05:47;;;;;;;8.32;2.08;;;;;;;;;;4969589;28;99649;-74
2023/12/20 09:08:14;;;;;;;21.45;3.30;;;;;;;;;;4969835;28;99950;-74
2023/12/20 09:10:40;;;;;;;20.88;2.97;;;;;;;;;;4969710;28;98231;-74
2023/12/20 09:13:07;;;;;;;20.30;4.25;;;;;;;;;;4969953;28;99445;-74
2023/12/20 09:15:34;;;;;;;11.35;2.97;;;;;;;;;;4969896;28;98880;-75
2023/12/20 09:18:03;;;;;;;22.15;3.60;;;;;;;;;;4972849;28;99510;-75
2023/12/20 09:20:30;;;;;;;21.38;4.45;;;;;;;;;;4970003;28;100012;-74
2023/12/20 09:22:57;;;;;;;17.20;3.97;;;;;;;;;;4969385;28;98204;-75
2023/12/20 09:25:24;;;;;;;13.80;3.60;;;;;;;;;;4969329;28;99284;-75
2023/12/20 09:27:50;;;;;;;23.20;3.17;;;;;;;;;;4969779;28;99835;-76
2023/12/20 09:30:17;;;;;;;17.42;3.58;;;;;;;;;;4970317;28;98435;-75
2023/12/20 09:32:53;;;;;;;24.45;4.13;;;;;;;;;;4969466;28;99417;-74
2023/12/20 09:35:19;;;;;;;18.85;2.92;;;;;;;;;;4969417;28;99944;-75
2023/12/20 09:37:46;;;;;;;17.30;4.15;;;;;;;;;;4973021;28;98266;-74
2023/12/20 09:40:13;;;;;;;10.45;2.33;;;;;;;;;;4968925;28;99724;-74
2023/12/20 09:42:49;;;;;;;11.70;2.55;;;;;;;;;;4969549;28;98246;-74
2023/12/20 09:45:17;;;;;;;16.38;3.83;;;;;;;;;;4969371;28;99410;-74
2023/12/20 09:47:44;;;;;;;22.15;4.57;;;;;;;;;;4968050;28;99915;-74
2023/12/20 09:50:12;;;;;;;10.50;2.67;;;;;;;;;;4969384;28;98195;-75
2023/12/20 09:52:38;;;;;;;18.17;3.33;;;;;;;;;;4968859;28;99757;-74
2023/12/20 09:55:06;;;;;;;16.13;3.22;;;;;;;;;;4969265;28;99084;-74
2023/12/20 09:57:33;;;;;;;7.32;2.03;;;;;;;;;;4969431;28;98256;-74
2023/12/20 10:00:00;;;;;;;14.43;3.08;;;;;;;;;;4971872;28;99478;-74
2023/12/20 10:02:27;;;;;;;13.38;2.42;;;;;;;;;;4967879;28;98404;-73
2023/12/20 10:04:54;;;;;;;13.85;3.28;;;;;;;;;;4969686;28;99573;-74
2023/12/20 10:07:22;;;;;;;15.13;3.42;;;;;;;;;;4968161;28;99861;-75
2023/12/20 10:09:48;;;;;;;20.95;4.10;;;;;;;;;;4969178;28;98283;-74
2023/12/20 10:12:15;;;;;;;15.70;3.20;;;;;;;;;;4968224;28;99407;-75
2023/12/20 10:14:41;;;;;;;12.65;2.55;;;;;;;;;;4968197;28;100006;-74
2023/12/20 10:17:08;;;;;;;19.33;3.72;;;;;;;;;;4967516;28;98293;-74
2023/12/20 10:19:34;;;;;;;8.77;2.25;;;;;;;;;;4969302;28;98860;-74
2023/12/20 10:22:04;;;;;;;17.67;3.50;;;;;;;;;;4969712;28;100011;-75
2023/12/20 10:24:30;;;;;;;7.85;2.25;;;;;;;;;;4967990;28;99564;-75
2023/12/20 10:27:04;;;;;;;14.82;2.92;;;;;;;;;;4964507;28;99969;-74
2023/12/20 10:29:34;;;;;;;20.92;3.45;;;;;;;;;;4950205;28;98425;-75
2023/12/20 10:32:03;;;;;;;;;;;;;;;;;;4950049;28;99393;-77
2023/12/20 10:34:32;;;;;;;13.98;4.38;;;;;;;;;;4947531;28;128445;-74
2023/12/20 10:36:59;;;;;;;11.27;3.38;;;;;;;;;;4947781;28;98178;-74
2023/12/20 10:39:25;;;;;;;18.17;3.50;;;;;;;;;;4949010;28;99001;-74
2023/12/20 10:41:52;;;;;;;22.02;3.40;;;;;;;;;;4948449;28;99946;-74
2023/12/20 10:44:18;;;;;;;19.80;3.72;;;;;;;;;;4952233;28;98269;-75
2023/12/20 10:46:51;;;;;;;15.88;2.88;;;;;;;;;;4949208;28;99927;-75
2023/12/20 10:49:20;;;;;;;19.13;2.92;;;;;;;;;;4947979;28;98395;-74
2023/12/20 10:51:46;;;;;;;15.45;3.15;;;;;;;;;;4948795;28;99501;-75
2023/12/20 10:54:13;;;;;;;19.42;3.35;;;;;;;;;;4948873;28;99039;-74
2023/12/20 10:56:39;;;;;;;15.65;2.42;;;;;;;;;;4948376;28;98292;-75
2023/12/20 10:59:09;;;;;;;7.88;2.47;;;;;;;;;;4948833;28;99464;-74
2023/12/20 11:01:37;;;;;;;14.95;3.38;;;;;;;;;;4963005;28;100204;-73
2023/12/20 11:04:06;;;;;;;11.55;2.42;;;;;;;;;;4965262;28;98363;-75
2023/12/20 11:06:35;;;;;;;22.85;6.68;;;;;;;;;;4964099;28;99607;-75
2023/12/20 11:09:22;;;;;;;21.58;3.70;;;;;;;;;;4958867;28;98376;-75
2023/12/20 11:12:04;;;;;;;20.73;4.40;;;;;;;;;;4960488;28;98618;-73
2023/12/20 11:14:33;;;;;;;23.40;7.18;;;;;;;;;;4967207;28;99959;-75
2023/12/20 11:17:07;;;;;;;17.88;4.45;;;;;;;;;;4963955;28;98601;-74
2023/12/20 11:19:35;;;;;;;20.42;4.50;;;;;;;;;;4966588;28;99734;-75
2023/12/20 11:22:03;;;;;;;12.68;4.65;;;;;;;;;;4958910;28;99959;-75
2023/12/20 11:24:31;;;;;;;13.38;3.70;;;;;;;;;;4964742;28;98631;-75
2023/12/20 11:26:57;;;;;;;19.35;4.68;;;;;;;;;;4965143;28;99440;-75
2023/12/20 11:29:33;;;;;;;19.05;5.68;;;;;;;;;;4961736;28;99048;-74
2023/12/20 11:32:03;;;;;;;15.90;3.05;;;;;;;;;;4960244;28;99907;-75
2023/12/20 11:34:33;;;;;;;11.10;2.78;;;;;;;;;;4987442;28;100320;-73
2023/12/20 11:37:02;;;;;;;8.20;2.35;;;;;;;;;;4962927;28;99726;-79
2023/12/20 11:39:28;;;;;;;12.00;3.63;;;;;;;;;;4965380;28;99348;-76
2023/12/20 11:41:56;;;;;;;7.30;2.28;;;;;;;;;;4967304;28;99987;-75
2023/12/20 11:44:25;;;;;;;13.48;2.40;;;;;;;;;;4964791;28;98980;-74
2023/12/20 11:46:51;;;;;;;4.78;1.83;;;;;;;;;;4961279;28;99370;-75
2023/12/20 11:49:18;;;;;;;14.02;2.35;;;;;;;;;;4961606;28;99964;-74
2023/12/20 11:51:44;;;;;;;15.40;2.38;;;;;;;;;;4958258;28;99497;-73
2023/12/20 11:54:11;;;;;;;8.52;2.83;;;;;;;;;;4959098;28;99181;-74
2023/12/20 11:56:38;;;;;;;5.10;1.58;;;;;;;;;;4955894;28;98306;-73
2023/12/20 11:59:04;;;;;;;6.65;2.00;;;;;;;;;;4962060;28;99477;-74
2023/12/20 12:01:50;;;;;;;11.32;2.85;;;;;;;;;;4956186;28;100975;-74
2023/12/20 12:04:19;;;;;;;8.43;1.77;;;;;;;;;;4956203;28;99484;-74
2023/12/20 12:06:46;;;;;;;13.75;2.38;;;;;;;;;;4959387;28;100031;-75
2023/12/20 12:09:13;;;;;;;10.75;2.85;;;;;;;;;;4959556;28;100581;-75
2023/12/20 12:11:39;;;;;;;10.15;2.15;;;;;;;;;;4967166;28;99019;-74
2023/12/20 12:14:07;;;;;;;9.25;3.20;;;;;;;;;;4958267;28;100142;-74
2023/12/20 12:16:33;;;;;;;7.47;2.15;;;;;;;;;;4956702;28;98472;-73
2023/12/20 12:19:00;;;;;;;9.65;2.40;;;;;;;;;;4959503;28;99117;-74
2023/12/20 12:21:27;;;;;;;11.20;2.53;;;;;;;;;;4968684;28;100320;-73
2023/12/20 12:24:11;;;;;;;14.38;2.45;;;;;;;;;;4963053;28;99770;-74
2023/12/20 12:26:38;;;;;;;13.50;4.40;;;;;;;;;;4960576;28;99788;-75
2023/12/20 12:29:09;;;;;;;11.68;2.20;;;;;;;;;;4963961;28;100234;-73
2023/12/20 12:31:36;;;;;;;8.70;3.10;;;;;;;;;;4966956;28;98374;-74
2023/12/20 12:34:03;;;;;;;9.68;2.35;;;;;;;;;;4970230;28;99294;-75
2023/12/20 12:36:29;;;;;;;12.43;2.60;;;;;;;;;;4966430;28;98336;-74
2023/12/20 12:38:57;;;;;;;11.93;3.25;;;;;;;;;;4967024;28;99528;-73
2023/12/20 12:41:23;;;;;;;7.72;2.67;;;;;;;;;;4968313;28;99003;-74
2023/12/20 12:43:50;;;;;;;8.18;1.98;;;;;;;;;;4970612;28;98266;-74
2023/12/20 12:46:17;;;;;;;11.57;2.88;;;;;;;;;;4970456;28;99485;-74
2023/12/20 12:48:43;;;;;;;11.90;2.63;;;;;;;;;;4969616;28;99279;-73
2023/12/20 12:51:13;;;;;;;15.45;3.40;;;;;;;;;;4970274;28;99022;-74
2023/12/20 12:53:40;;;;;;;8.52;2.50;;;;;;;;;;4969439;28;99615;-74
2023/12/20 12:56:07;;;;;;;14.35;2.22;;;;;;;;;;4970636;28;99892;-72
2023/12/20 12:58:33;;;;;;;16.73;4.32;;;;;;;;;;4968535;28;99777;-73
2023/12/20 13:01:00;;;;;;;10.95;2.35;;;;;;;;;;4968312;28;99854;-74
2023/12/20 13:03:26;;;;;;;9.18;3.17;;;;;;;;;;4967385;28;98511;-75
2023/12/20 13:05:53;;;;;;;17.95;3.53;;;;;;;;;;4967689;28;99500;-74
2023/12/20 13:08:19;;;;;;;12.68;3.00;;;;;;;;;;4968103;28;98972;-74
2023/12/20 13:10:46;;;;;;;15.38;3.08;;;;;;;;;;4967892;28;98247;-74
2023/12/20 13:13:12;;;;;;;14.73;3.53;;;;;;;;;;4968667;28;98798;-74
2023/12/20 13:15:39;;;;;;;18.85;3.70;;;;;;;;;;4968573;28;99004;-75
2023/12/20 13:18:06;;;;;;;19.73;2.85;;;;;;;;;;4972426;28;98299;-74
2023/12/20 13:20:33;;;;;;;10.68;2.75;;;;;;;;;;4970060;28;98959;-75
2023/12/20 13:23:00;;;;;;;16.30;2.08;;;;;;;;;;4970447;28;98269;-74
2023/12/20 13:25:26;;;;;;;10.35;2.53;;;;;;;;;;4969214;28;99434;-75
2023/12/20 13:27:53;;;;;;;13.80;3.60;;;;;;;;;;4969709;28;101934;-74
2023/12/20 13:30:19;;;;;;;16.30;3.38;;;;;;;;;;4968928;28;98294;-74
2023/12/20 13:32:46;;;;;;;15.07;2.85;;;;;;;;;;4969406;28;98776;-74
2023/12/20 13:35:12;;;;;;;17.13;3.38;;;;;;;;;;4969626;28;99679;-75
2023/12/20 13:37:39;;;;;;;22.80;3.78;;;;;;;;;;4972285;28;98260;-74
2023/12/20 13:40:06;;;;;;;9.68;2.65;;;;;;;;;;4969243;28;99916;-72
2023/12/20 13:42:33;;;;;;;11.93;2.42;;;;;;;;;;4969834;28;98358;-74
2023/12/20 13:44:59;;;;;;;16.65;3.53;;;;;;;;;;4968912;28;99444;-74
2023/12/20 13:47:25;;;;;;;8.90;2.75;;;;;;;;;;4969313;28;99996;-74
2023/12/20 13:49:52;;;;;;;18.00;2.55;;;;;;;;;;4969502;28;98305;-75
2023/12/20 13:52:19;;;;;;;8.68;3.40;;;;;;;;;;4968442;28;99388;-74
2023/12/20 13:54:45;;;;;;;10.35;3.03;;;;;;;;;;4968628;28;98942;-74
2023/12/20 13:57:12;;;;;;;10.07;2.53;;;;;;;;;;4969011;28;98417;-75
2023/12/20 13:59:57;;;;;;;13.63;2.72;;;;;;;;;;4972006;28;99266;-74
2023/12/20 14:02:24;;;;;;;18.08;3.10;;;;;;;;;;4969361;28;98846;-73
2023/12/20 14:04:50;;;;;;;18.60;4.05;;;;;;;;;;4969483;28;98720;-75
2023/12/20 14:07:17;;;;;;;12.00;2.92;;;;;;;;;;4968196;28;99943;-74
2023/12/20 14:09:45;;;;;;;11.35;2.70;;;;;;;;;;4969387;28;98243;-75
2023/12/20 14:12:13;;;;;;;18.88;3.67;;;;;;;;;;4969507;28;99519;-73
2023/12/20 14:14:39;;;;;;;10.52;2.58;;;;;;;;;;4968190;28;99774;-74
2023/12/20 14:17:06;;;;;;;13.30;2.00;;;;;;;;;;4968595;28;98235;-74
2023/12/20 14:19:32;;;;;;;13.93;2.47;;;;;;;;;;4956541;28;99669;-73
2023/12/20 14:22:03;;;;;;;8.80;1.95;;;;;;;;;;4952097;28;99797;-73
2023/12/20 14:24:29;;;;;;;11.50;2.03;;;;;;;;;;4949110;28;99318;-74
2023/12/20 14:26:56;;;;;;;4.70;2.67;;;;;;;;;;4948549;28;99998;-74
2023/12/20 14:29:22;;;;;;;10.15;2.60;;;;;;;;;;4949252;28;98277;-75
2023/12/20 14:31:51;;;;;;;3.95;1.65;;;;;;;;;;4949493;28;99616;-74